Time;durP1;ratioP1;P1;durP2;ratioP2;P2;SDS_P1;SDS_P2;PMS_P1;PMS_P2;Temp;Humidity;BMP_temperature;BMP_pressure;BME280_temperature;BME280_humidity;BME280_pressure;Samples;Min_cycle;Max_cycle;Signal;HPM_P1;HPM_P2
2022/07/02 00:00:01;;;;;;;0.40;0.20;;;13.80;99.90;;;;;;5049952;28;20039;-80
2022/07/02 00:02:27;;;;;;;0.00;0.00;;;13.70;99.90;;;;;;5048394;28;20036;-78
2022/07/02 00:05:04;;;;;;;0.10;0.10;;;13.60;99.90;;;;;;5051800;28;21386;-79
2022/07/02 00:07:30;;;;;;;0.10;0.10;;;13.60;99.90;;;;;;5046460;28;20712;-78
2022/07/02 00:09:58;;;;;;;0.10;0.10;;;13.60;99.90;;;;;;5047365;28;20204;-78
2022/07/02 00:12:25;;;;;;;0.10;0.10;;;13.60;99.90;;;;;;5044364;28;20033;-79
2022/07/02 00:14:54;;;;;;;0.10;0.10;;;13.60;99.90;;;;;;5046583;28;20028;-77
2022/07/02 00:17:21;;;;;;;0.10;0.10;;;13.70;99.90;;;;;;5046243;28;20043;-78
2022/07/02 00:19:48;;;;;;;0.10;0.10;;;13.80;99.90;;;;;;5046711;28;20535;-78
2022/07/02 00:22:15;;;;;;;0.00;0.00;;;13.70;99.90;;;;;;5044827;28;20556;-79
2022/07/02 00:24:41;;;;;;;0.03;0.03;;;13.60;99.90;;;;;;5044807;28;20507;-77
2022/07/02 00:27:15;;;;;;;0.00;0.00;;;13.50;99.90;;;;;;5047190;28;20446;-77
2022/07/02 00:30:01;;;;;;;0.13;0.10;;;13.50;99.90;;;;;;5045740;28;20035;-78
2022/07/02 00:32:28;;;;;;;0.10;0.10;;;13.50;99.90;;;;;;5046040;28;20141;-78
2022/07/02 00:34:57;;;;;;;0.20;0.20;;;13.40;99.90;;;;;;5049978;28;20039;-78
2022/07/02 00:37:27;;;;;;;0.50;0.50;;;13.40;99.90;;;;;;5045657;28;20480;-77
2022/07/02 00:39:54;;;;;;;0.10;0.10;;;13.40;99.90;;;;;;5045191;28;20146;-77
2022/07/02 00:42:21;;;;;;;0.10;0.10;;;13.30;99.90;;;;;;5046905;28;20044;-76
2022/07/02 00:44:47;;;;;;;0.00;0.00;;;13.30;99.90;;;;;;5059455;28;20032;-77
2022/07/02 00:47:16;;;;;;;0.10;0.10;;;13.30;99.90;;;;;;5046543;28;20098;-75
2022/07/02 00:49:41;;;;;;;0.28;0.20;;;13.30;99.90;;;;;;5039612;28;20039;-77
2022/07/02 00:52:08;;;;;;;5.25;2.40;;;13.30;99.90;;;;;;5046436;28;20032;-78
2022/07/02 00:54:38;;;;;;;0.00;0.00;;;13.20;99.90;;;;;;5047167;28;20575;-78
2022/07/02 00:57:05;;;;;;;0.10;0.10;;;13.20;99.90;;;;;;5059747;28;20036;-78
2022/07/02 00:59:31;;;;;;;;;;;13.20;99.90;;;;;;5047190;28;21072;-83
2022/07/02 01:01:57;;;;;;;;;;;13.20;99.90;;;;;;5051673;28;19979;-81
2022/07/02 01:04:25;;;;;;;0.10;0.10;;;13.10;99.90;;;;;;5052347;28;20010;-81
2022/07/02 01:06:51;;;;;;;2.67;1.27;;;13.10;99.90;;;;;;5046102;28;20027;-81
2022/07/02 01:12:03;;;;;;;0.10;0.10;;;13.00;99.90;;;;;;5048697;28;20720;-80
2022/07/02 01:14:30;;;;;;;0.00;0.00;;;13.10;99.90;;;;;;5045493;28;20025;-80
2022/07/02 01:16:56;;;;;;;0.00;0.00;;;13.00;99.90;;;;;;5046607;28;20028;-80
2022/07/02 01:19:23;;;;;;;0.10;0.10;;;12.90;99.90;;;;;;5044549;28;20044;-79
2022/07/02 01:22:07;;;;;;;;;;;12.90;99.90;;;;;;5047024;28;20488;-80
2022/07/02 01:24:34;;;;;;;0.03;0.03;;;12.80;99.90;;;;;;5045579;28;19935;-80
2022/07/02 01:27:00;;;;;;;0.10;0.10;;;12.80;99.90;;;;;;5045700;28;20054;-80
2022/07/02 01:29:25;;;;;;;0.10;0.10;;;12.70;99.90;;;;;;5044512;28;20049;-81
2022/07/02 01:31:51;;;;;;;0.00;0.00;;;12.70;99.90;;;;;;5045596;28;20450;-81
2022/07/02 01:34:17;;;;;;;0.10;0.10;;;12.70;99.90;;;;;;5058875;28;20730;-81
2022/07/02 01:36:42;;;;;;;0.00;0.00;;;12.70;99.90;;;;;;5045973;28;20580;-82
2022/07/02 01:39:08;;;;;;;0.13;0.13;;;12.70;99.90;;;;;;5046131;28;20987;-82
2022/07/02 01:41:40;;;;;;;0.40;0.40;;;12.70;99.90;;;;;;5046358;28;20173;-82
2022/07/02 01:44:06;;;;;;;0.10;0.10;;;12.60;99.90;;;;;;5046756;28;21690;-82
2022/07/02 01:46:32;;;;;;;0.03;0.03;;;12.60;99.90;;;;;;5044074;28;20028;-82
2022/07/02 01:48:58;;;;;;;0.10;0.10;;;12.60;99.90;;;;;;5044573;28;20032;-81
2022/07/02 01:51:23;;;;;;;0.15;0.15;;;12.50;99.90;;;;;;5044519;28;20028;-82
2022/07/02 01:53:49;;;;;;;0.10;0.10;;;12.60;99.90;;;;;;5045643;28;20553;-81
2022/07/02 01:56:15;;;;;;;0.10;0.10;;;12.50;99.90;;;;;;5045765;28;20127;-82
2022/07/02 01:58:41;;;;;;;0.10;0.10;;;12.50;99.90;;;;;;5047034;28;20036;-82
2022/07/02 02:01:06;;;;;;;0.20;0.20;;;12.40;99.90;;;;;;5048851;28;20032;-82
2022/07/02 02:03:32;;;;;;;0.10;0.10;;;12.30;99.90;;;;;;5046174;28;20060;-84
2022/07/02 02:05:57;;;;;;;0.20;0.20;;;12.30;99.90;;;;;;5047758;28;20060;-87
2022/07/02 02:08:23;;;;;;;0.10;0.10;;;12.30;99.90;;;;;;5055503;28;20037;-86
2022/07/02 02:10:50;;;;;;;0.22;0.20;;;12.30;99.90;;;;;;5050992;28;20035;-87
2022/07/02 02:13:15;;;;;;;0.10;0.10;;;12.30;99.90;;;;;;5051271;28;20151;-87
2022/07/02 02:15:41;;;;;;;0.20;0.20;;;12.30;99.90;;;;;;5066030;28;20036;-85
2022/07/02 02:18:07;;;;;;;0.35;0.25;;;12.20;99.90;;;;;;5048619;28;20028;-85
2022/07/02 02:20:33;;;;;;;0.10;0.10;;;12.20;99.90;;;;;;5049879;28;20032;-83
2022/07/02 02:23:00;;;;;;;0.22;0.22;;;12.20;99.90;;;;;;5049526;28;21086;-84
2022/07/02 02:25:26;;;;;;;0.40;0.32;;;12.10;99.90;;;;;;5051247;28;20053;-82
2022/07/02 02:27:52;;;;;;;0.10;0.10;;;12.20;99.90;;;;;;5050564;28;20582;-80
2022/07/02 02:30:17;;;;;;;0.00;0.00;;;12.10;99.90;;;;;;5071173;28;20028;-82
2022/07/02 02:32:43;;;;;;;0.00;0.00;;;12.10;99.90;;;;;;5060202;28;20033;-80
2022/07/02 02:35:09;;;;;;;0.10;0.10;;;12.10;99.90;;;;;;5050256;28;22285;-80
2022/07/02 02:37:35;;;;;;;0.10;0.10;;;12.10;99.90;;;;;;5047332;28;20356;-81
2022/07/02 02:40:00;;;;;;;0.10;0.10;;;12.10;99.90;;;;;;5048272;28;20044;-81
2022/07/02 02:42:26;;;;;;;0.10;0.10;;;12.10;99.90;;;;;;5048518;28;20048;-78
2022/07/02 02:44:52;;;;;;;0.10;0.10;;;12.10;99.90;;;;;;5049974;28;20415;-83
2022/07/02 02:47:17;;;;;;;0.10;0.10;;;12.10;99.90;;;;;;5048670;28;20028;-83
2022/07/02 02:49:43;;;;;;;0.57;0.57;;;12.10;99.90;;;;;;5047397;28;20035;-83
2022/07/02 02:52:09;;;;;;;0.10;0.10;;;12.00;99.90;;;;;;5047453;28;20151;-86
2022/07/02 02:54:34;;;;;;;0.13;0.13;;;11.90;99.90;;;;;;5052233;28;21057;-82
2022/07/02 02:57:00;;;;;;;0.10;0.10;;;11.80;99.90;;;;;;5057054;28;20591;-85
2022/07/02 02:59:26;;;;;;;0.10;0.10;;;11.90;99.90;;;;;;5057633;28;20776;-75
2022/07/02 03:01:51;;;;;;;0.10;0.10;;;11.90;99.90;;;;;;5050068;28;20029;-76
2022/07/02 03:04:17;;;;;;;0.00;0.00;;;11.90;99.90;;;;;;5046920;28;20028;-75
2022/07/02 03:06:43;;;;;;;0.05;0.05;;;11.90;99.90;;;;;;5046178;28;20452;-75
2022/07/02 03:09:08;;;;;;;0.13;0.13;;;11.80;99.90;;;;;;5048871;28;20037;-75
2022/07/02 03:11:34;;;;;;;0.10;0.10;;;11.80;99.90;;;;;;5050710;28;20055;-75
2022/07/02 03:14:00;;;;;;;0.10;0.10;;;11.70;99.90;;;;;;5049714;28;20586;-77
2022/07/02 03:16:26;;;;;;;0.10;0.10;;;11.70;99.90;;;;;;5045873;28;20032;-76
2022/07/02 03:18:51;;;;;;;0.10;0.10;;;11.60;99.90;;;;;;5046549;28;20047;-76
2022/07/02 03:21:17;;;;;;;0.10;0.10;;;11.60;99.90;;;;;;5046788;28;20078;-76
2022/07/02 03:23:43;;;;;;;0.10;0.10;;;11.60;99.90;;;;;;5046259;28;20037;-77
2022/07/02 03:26:08;;;;;;;0.08;0.08;;;11.50;99.90;;;;;;5047083;28;20028;-77
2022/07/02 03:28:34;;;;;;;0.08;0.08;;;11.50;99.90;;;;;;5046202;28;20028;-76
2022/07/02 03:31:00;;;;;;;0.10;0.10;;;11.50;99.90;;;;;;5048097;28;20028;-77
2022/07/02 03:33:26;;;;;;;0.13;0.13;;;11.50;99.90;;;;;;5047480;28;20036;-76
2022/07/02 03:35:52;;;;;;;0.05;0.05;;;11.60;99.90;;;;;;5046693;28;20036;-76
2022/07/02 03:38:18;;;;;;;0.20;0.20;;;11.60;99.90;;;;;;5048010;28;20023;-76
2022/07/02 03:40:44;;;;;;;0.20;0.20;;;11.50;99.90;;;;;;5045526;28;20040;-76
2022/07/02 03:43:09;;;;;;;0.32;0.20;;;11.50;99.90;;;;;;5045269;28;20605;-76
2022/07/02 03:45:35;;;;;;;0.10;0.10;;;11.50;99.90;;;;;;5049778;28;20560;-77
2022/07/02 03:48:01;;;;;;;0.10;0.10;;;11.40;99.90;;;;;;5046751;28;20047;-74
2022/07/02 03:50:26;;;;;;;0.22;0.22;;;11.40;99.90;;;;;;5046212;28;20024;-74
2022/07/02 03:52:52;;;;;;;0.10;0.10;;;11.30;99.90;;;;;;5046888;28;20028;-74
2022/07/02 03:55:18;;;;;;;0.10;0.10;;;11.30;99.90;;;;;;5047183;28;20056;-74
2022/07/02 03:57:43;;;;;;;0.10;0.10;;;11.20;99.90;;;;;;5047945;28;20146;-75
2022/07/02 04:00:10;;;;;;;0.00;0.00;;;11.20;99.90;;;;;;5047247;28;20116;-74
2022/07/02 04:02:36;;;;;;;0.10;0.10;;;11.30;99.90;;;;;;5046986;28;20810;-74
2022/07/02 04:05:02;;;;;;;0.10;0.10;;;11.30;99.90;;;;;;5046703;28;20037;-74
2022/07/02 04:07:27;;;;;;;0.43;0.20;;;11.20;99.90;;;;;;5046134;28;20033;-74
2022/07/02 04:09:53;;;;;;;0.08;0.08;;;11.20;99.90;;;;;;5052681;28;20028;-74
2022/07/02 04:12:19;;;;;;;0.10;0.10;;;11.20;99.90;;;;;;5045320;28;20064;-75
2022/07/02 04:14:45;;;;;;;0.10;0.10;;;11.20;99.90;;;;;;5047789;28;20107;-74
2022/07/02 04:17:10;;;;;;;0.10;0.10;;;11.30;99.90;;;;;;5046381;28;20071;-74
2022/07/02 04:19:36;;;;;;;0.10;0.10;;;11.20;99.90;;;;;;5045550;28;20041;-75
2022/07/02 04:22:02;;;;;;;0.10;0.10;;;11.30;99.90;;;;;;5044699;28;20131;-75
2022/07/02 04:24:29;;;;;;;0.10;0.10;;;11.40;99.90;;;;;;5044845;28;20571;-74
2022/07/02 04:26:55;;;;;;;0.00;0.00;;;12.10;99.90;;;;;;5044267;28;21061;-77
2022/07/02 04:29:21;;;;;;;0.10;0.10;;;12.50;99.90;;;;;;5045013;28;20499;-75
2022/07/02 04:31:48;;;;;;;0.10;0.10;;;12.80;99.90;;;;;;5044878;28;20056;-75
2022/07/02 04:34:14;;;;;;;0.05;0.05;;;13.20;99.90;;;;;;5059481;28;20032;-76
2022/07/02 04:36:40;;;;;;;0.20;0.20;;;13.50;99.90;;;;;;5055076;28;20043;-77
2022/07/02 04:39:06;;;;;;;0.00;0.00;;;13.90;99.90;;;;;;5044831;28;20229;-77
2022/07/02 04:41:32;;;;;;;0.10;0.10;;;14.20;99.90;;;;;;5044479;28;20032;-77
2022/07/02 04:43:59;;;;;;;0.10;0.10;;;14.50;99.90;;;;;;5044221;28;20036;-77
2022/07/02 04:46:24;;;;;;;0.00;0.00;;;14.90;99.90;;;;;;5045086;28;20047;-76
2022/07/02 04:48:50;;;;;;;0.00;0.00;;;15.10;99.90;;;;;;5064389;28;20933;-76
2022/07/02 04:51:17;;;;;;;0.03;0.03;;;15.30;99.90;;;;;;5044013;28;20027;-76
2022/07/02 04:53:43;;;;;;;0.00;0.00;;;15.50;99.90;;;;;;5045411;28;20032;-77
2022/07/02 04:56:09;;;;;;;0.00;0.00;;;15.70;99.90;;;;;;5062404;28;20059;-76
2022/07/02 04:58:35;;;;;;;0.67;0.67;;;15.90;99.90;;;;;;5047540;28;20064;-75
2022/07/02 05:01:01;;;;;;;0.23;0.23;;;16.20;99.90;;;;;;5045191;28;20036;-76
2022/07/02 05:03:26;;;;;;;0.40;0.40;;;16.30;99.90;;;;;;5050056;28;20519;-77
2022/07/02 05:05:52;;;;;;;0.10;0.10;;;16.50;99.90;;;;;;5045442;28;20156;-76
2022/07/02 05:08:24;;;;;;;0.00;0.00;;;17.20;99.90;;;;;;5045704;28;20048;-76
2022/07/02 05:10:49;;;;;;;0.00;0.00;;;17.40;99.90;;;;;;5059293;28;20036;-76
2022/07/02 05:13:15;;;;;;;0.17;0.17;;;17.40;99.90;;;;;;5044503;28;20020;-75
2022/07/02 05:15:41;;;;;;;0.00;0.00;;;16.60;99.90;;;;;;5045363;28;20034;-76
2022/07/02 05:18:07;;;;;;;0.00;0.00;;;16.70;99.90;;;;;;5045248;28;20028;-75
2022/07/02 05:20:32;;;;;;;0.00;0.00;;;16.50;99.90;;;;;;5045146;28;20666;-76
2022/07/02 05:22:58;;;;;;;0.27;0.07;;;16.40;99.90;;;;;;5044061;28;20412;-77
2022/07/02 05:25:24;;;;;;;0.00;0.00;;;16.60;99.90;;;;;;5042991;28;20377;-77
2022/07/02 05:27:50;;;;;;;0.00;0.00;;;16.50;99.90;;;;;;5044675;28;20029;-75
2022/07/02 05:30:15;;;;;;;0.00;0.00;;;16.70;99.90;;;;;;5050049;28;20025;-75
2022/07/02 05:32:41;;;;;;;0.00;0.00;;;17.00;99.90;;;;;;5061991;28;20020;-74
2022/07/02 05:35:07;;;;;;;0.10;0.10;;;17.00;99.90;;;;;;5060004;28;20016;-77
2022/07/02 05:37:33;;;;;;;0.00;0.00;;;17.40;99.90;;;;;;5059308;28;20046;-77
2022/07/02 05:39:58;;;;;;;0.00;0.00;;;17.20;99.90;;;;;;5057433;28;20056;-77
2022/07/02 05:42:24;;;;;;;0.00;0.00;;;17.20;99.90;;;;;;5057627;28;20483;-77
2022/07/02 05:44:50;;;;;;;0.17;0.17;;;17.30;99.90;;;;;;5060090;28;20562;-76
2022/07/02 05:47:15;;;;;;;0.00;0.00;;;17.60;99.90;;;;;;5060161;28;20511;-77
2022/07/02 05:49:41;;;;;;;0.00;0.00;;;18.00;99.90;;;;;;5058601;28;20109;-77
2022/07/02 05:52:07;;;;;;;0.00;0.00;;;17.30;99.90;;;;;;5059443;28;20036;-77
2022/07/02 05:54:33;;;;;;;0.00;0.00;;;17.80;99.90;;;;;;5058770;28;20025;-78
2022/07/02 05:56:59;;;;;;;0.40;0.40;;;17.30;99.90;;;;;;5059613;28;20047;-79
2022/07/02 05:59:24;;;;;;;0.00;0.00;;;17.90;99.90;;;;;;5062460;28;20031;-78
2022/07/02 06:01:50;;;;;;;0.00;0.00;;;18.10;99.90;;;;;;5058840;28;20093;-79
2022/07/02 06:04:16;;;;;;;0.00;0.00;;;18.70;98.90;;;;;;5059003;28;20063;-79
2022/07/02 06:09:25;;;;;;;0.00;0.00;;;18.80;98.10;;;;;;5058401;28;20082;-79
2022/07/02 06:11:51;;;;;;;0.00;0.00;;;19.30;95.10;;;;;;5060601;28;20040;-79
2022/07/02 06:14:17;;;;;;;0.00;0.00;;;19.40;94.30;;;;;;5061046;28;20036;-78
2022/07/02 06:16:43;;;;;;;0.07;0.00;;;19.90;92.40;;;;;;5058593;28;20037;-79
2022/07/02 06:19:08;;;;;;;0.00;0.00;;;19.50;91.60;;;;;;5058666;28;20863;-76
2022/07/02 06:21:35;;;;;;;0.00;0.00;;;20.80;84.80;;;;;;5057687;28;20028;-76
2022/07/02 06:24:00;;;;;;;0.00;0.00;;;22.20;77.40;;;;;;5058172;28;20446;-76
2022/07/02 06:26:26;;;;;;;0.00;0.00;;;22.70;75.00;;;;;;5053635;28;20040;-78
2022/07/02 06:28:52;;;;;;;0.00;0.00;;;22.50;71.40;;;;;;5059945;28;20059;-76
2022/07/02 06:31:17;;;;;;;0.00;0.00;;;23.20;69.90;;;;;;5058192;28;20646;-76
2022/07/02 06:33:43;;;;;;;0.00;0.00;;;24.10;66.40;;;;;;5058419;28;20033;-76
2022/07/02 06:36:14;;;;;;;0.00;0.00;;;24.00;65.50;;;;;;5058092;28;20372;-77
2022/07/02 06:38:40;;;;;;;0.00;0.00;;;23.90;66.20;;;;;;5060762;28;20032;-77
2022/07/02 06:43:50;;;;;;;0.00;0.00;;;24.70;65.20;;;;;;5058321;28;20581;-77
2022/07/02 06:46:15;;;;;;;0.10;0.10;;;25.20;62.70;;;;;;5058167;28;20032;-76
2022/07/02 06:48:41;;;;;;;0.00;0.00;;;25.40;63.50;;;;;;5058369;28;20293;-78
2022/07/02 06:51:07;;;;;;;0.00;0.00;;;25.90;63.30;;;;;;5060502;28;20511;-78
2022/07/02 06:53:33;;;;;;;0.00;0.00;;;25.80;62.40;;;;;;5064742;28;20103;-77
2022/07/02 06:55:58;;;;;;;0.17;0.17;;;26.10;60.50;;;;;;5067881;28;20101;-78
2022/07/02 06:58:24;;;;;;;0.00;0.00;;;26.80;59.20;;;;;;5066412;28;20514;-78
2022/07/02 07:00:50;;;;;;;0.00;0.00;;;27.00;57.30;;;;;;5063581;28;20062;-77
2022/07/02 07:03:15;;;;;;;0.00;0.00;;;26.70;57.50;;;;;;5062369;28;20047;-77
2022/07/02 07:05:46;;;;;;;0.10;0.00;;;27.20;57.10;;;;;;5064436;28;20169;-77
2022/07/02 07:08:12;;;;;;;0.00;0.00;;;28.00;58.10;;;;;;5064795;28;20063;-76
2022/07/02 07:10:38;;;;;;;0.00;0.00;;;28.40;56.10;;;;;;5064753;28;20133;-77
2022/07/02 07:13:03;;;;;;;0.00;0.00;;;28.30;55.50;;;;;;5063678;28;20032;-77
2022/07/02 07:15:29;;;;;;;0.10;0.10;;;28.70;55.50;;;;;;5063450;28;20042;-77
2022/07/02 07:17:54;;;;;;;;;;;28.80;54.30;;;;;;5062700;28;20584;-77
2022/07/02 07:20:26;;;;;;;0.00;0.00;;;29.20;53.80;;;;;;5063695;28;19923;-77
2022/07/02 07:22:53;;;;;;;0.00;0.00;;;29.20;54.20;;;;;;5061098;28;20515;-77
2022/07/02 07:25:19;;;;;;;0.08;0.00;;;29.40;56.00;;;;;;5060583;28;20029;-78
2022/07/02 07:27:45;;;;;;;0.20;0.13;;;29.50;53.70;;;;;;5061826;28;20116;-78
2022/07/02 07:30:11;;;;;;;;;;;29.60;53.00;;;;;;5063839;28;20836;-77
2022/07/02 07:32:37;;;;;;;0.00;0.00;;;29.60;53.40;;;;;;5063700;28;20430;-76
2022/07/02 07:35:04;;;;;;;0.00;0.00;;;29.50;53.80;;;;;;5062048;28;20958;-76
2022/07/02 07:37:30;;;;;;;0.00;0.00;;;30.30;52.10;;;;;;5061711;28;20052;-76
2022/07/02 07:39:55;;;;;;;0.10;0.10;;;29.80;50.90;;;;;;5061484;28;20075;-75
2022/07/02 07:42:22;;;;;;;0.00;0.00;;;30.40;51.00;;;;;;5060895;28;20529;-76
2022/07/02 07:44:49;;;;;;;0.00;0.00;;;30.10;50.40;;;;;;5061969;28;20597;-77
2022/07/02 07:47:15;;;;;;;0.00;0.00;;;30.10;50.90;;;;;;5062619;28;20036;-78
2022/07/02 07:49:41;;;;;;;0.00;0.00;;;30.60;48.80;;;;;;5053980;28;20036;-78
2022/07/02 07:52:06;;;;;;;0.00;0.00;;;31.80;47.70;;;;;;5060070;28;20028;-78
2022/07/02 07:54:32;;;;;;;0.10;0.10;;;31.60;48.70;;;;;;5059158;28;20034;-77
2022/07/02 07:56:58;;;;;;;0.10;0.10;;;32.30;48.30;;;;;;5061615;28;20017;-78
2022/07/02 07:59:24;;;;;;;0.00;0.00;;;32.20;48.70;;;;;;5062100;28;20534;-77
2022/07/02 08:01:49;;;;;;;0.00;0.00;;;33.30;48.80;;;;;;5059814;28;20024;-77
2022/07/02 08:04:15;;;;;;;0.00;0.00;;;33.60;47.70;;;;;;5060719;28;20511;-78
2022/07/02 08:06:41;;;;;;;0.22;0.15;;;32.10;45.80;;;;;;5060062;28;20066;-78
2022/07/02 08:09:06;;;;;;;0.00;0.00;;;33.60;47.70;;;;;;5060576;28;20123;-77
2022/07/02 08:11:32;;;;;;;0.00;0.00;;;33.60;48.60;;;;;;5062278;28;20097;-79
2022/07/02 08:13:58;;;;;;;0.00;0.00;;;33.60;45.80;;;;;;5085476;28;20036;-79
2022/07/02 08:16:24;;;;;;;0.00;0.00;;;33.90;46.00;;;;;;5062538;28;20115;-79
2022/07/02 08:18:50;;;;;;;0.00;0.00;;;34.60;46.70;;;;;;5060242;28;20577;-79
2022/07/02 08:21:16;;;;;;;0.38;0.13;;;34.80;47.40;;;;;;5061979;28;20255;-79
2022/07/02 08:23:41;;;;;;;0.00;0.00;;;33.60;46.20;;;;;;5061951;28;20602;-79
2022/07/02 08:26:07;;;;;;;0.00;0.00;;;35.40;49.00;;;;;;5052507;28;20515;-79
2022/07/02 08:28:33;;;;;;;0.00;0.00;;;35.90;47.10;;;;;;5050557;28;20417;-79
2022/07/02 08:31:00;;;;;;;0.00;0.00;;;35.90;46.10;;;;;;5044900;28;20048;-79
2022/07/02 08:33:26;;;;;;;0.00;0.00;;;35.90;45.40;;;;;;5051960;28;20024;-79
2022/07/02 08:35:52;;;;;;;0.00;0.00;;;36.00;46.00;;;;;;5058974;28;20035;-80
2022/07/02 08:38:18;;;;;;;0.00;0.00;;;36.00;43.90;;;;;;5050736;28;20460;-79
2022/07/02 08:40:44;;;;;;;0.00;0.00;;;35.50;43.30;;;;;;5054164;28;20089;-79
2022/07/02 08:43:15;;;;;;;0.00;0.00;;;35.90;43.20;;;;;;5052282;28;20044;-79
2022/07/02 08:45:42;;;;;;;0.20;0.10;;;35.90;43.90;;;;;;5060206;28;20028;-79
2022/07/02 08:48:09;;;;;;;0.10;0.10;;;35.30;44.70;;;;;;5059746;28;20162;-79
2022/07/02 08:50:36;;;;;;;0.00;0.00;;;36.40;45.80;;;;;;5057558;28;20430;-79
2022/07/02 08:53:04;;;;;;;0.00;0.00;;;35.80;46.30;;;;;;5048730;28;20029;-79
2022/07/02 08:55:32;;;;;;;0.00;0.00;;;35.60;43.20;;;;;;5046757;28;20055;-80
2022/07/02 08:57:58;;;;;;;0.00;0.00;;;36.80;45.10;;;;;;5045598;28;20032;-79
2022/07/02 09:00:25;;;;;;;0.00;0.00;;;35.90;43.50;;;;;;5049627;28;20036;-79
2022/07/02 09:02:53;;;;;;;0.20;0.20;;;36.90;45.10;;;;;;5060231;28;20027;-79
2022/07/02 09:05:21;;;;;;;1.33;0.10;;;37.00;44.50;;;;;;5073735;28;20036;-79
2022/07/02 09:07:48;;;;;;;0.10;0.10;;;37.60;44.10;;;;;;5057696;28;20111;-79
2022/07/02 09:10:17;;;;;;;0.00;0.00;;;37.90;44.00;;;;;;5059704;28;20063;-79
2022/07/02 09:12:45;;;;;;;0.05;0.00;;;37.60;42.80;;;;;;5058974;28;20666;-80
2022/07/02 09:15:12;;;;;;;0.00;0.00;;;37.50;43.00;;;;;;5058176;28;20565;-79
2022/07/02 09:17:41;;;;;;;0.00;0.00;;;37.90;43.30;;;;;;5060970;28;20400;-79
2022/07/02 09:20:08;;;;;;;0.00;0.00;;;37.90;43.70;;;;;;5058266;28;20040;-79
2022/07/02 09:22:48;;;;;;;0.00;0.00;;;37.90;44.50;;;;;;5058640;28;20048;-80
2022/07/02 09:25:30;;;;;;;0.00;0.00;;;37.10;43.40;;;;;;5049898;28;20401;-80
2022/07/02 09:28:03;;;;;;;0.10;0.10;;;35.80;41.10;;;;;;5044127;28;20029;-79
2022/07/02 09:30:32;;;;;;;0.00;0.00;;;37.20;41.60;;;;;;5042629;28;20025;-79
2022/07/02 09:35:41;;;;;;;0.00;0.00;;;37.70;42.80;;;;;;5058176;28;20685;-80
2022/07/02 09:38:09;;;;;;;0.10;0.10;;;37.10;42.60;;;;;;5059526;28;20037;-79
2022/07/02 09:40:35;;;;;;;0.00;0.00;;;37.00;42.70;;;;;;5067893;28;20454;-80
2022/07/02 09:43:01;;;;;;;0.00;0.00;;;37.90;42.90;;;;;;5058008;28;20036;-79
2022/07/02 09:45:26;;;;;;;0.10;0.00;;;38.30;42.40;;;;;;5058281;28;20055;-80
2022/07/02 09:47:53;;;;;;;0.10;0.10;;;38.40;42.20;;;;;;5058268;28;20036;-80
2022/07/02 09:50:22;;;;;;;0.30;0.30;;;38.00;45.20;;;;;;5059783;28;20456;-79
2022/07/02 09:52:53;;;;;;;0.00;0.00;;;38.50;41.30;;;;;;5059550;28;20047;-79
2022/07/02 09:55:28;;;;;;;0.35;0.35;;;36.30;41.80;;;;;;5056952;28;20032;-79
2022/07/02 09:57:56;;;;;;;0.00;0.00;;;36.60;43.30;;;;;;5056554;28;20056;-79
2022/07/02 10:00:24;;;;;;;0.00;0.00;;;36.80;41.40;;;;;;5060823;28;20029;-90
2022/07/02 10:02:54;;;;;;;0.00;0.00;;;37.10;41.70;;;;;;5062581;28;20097;-89
2022/07/02 10:05:27;;;;;;;0.00;0.00;;;38.00;42.10;;;;;;5054974;28;20017;-92
2022/07/02 10:07:57;;;;;;;0.10;0.10;;;38.20;42.50;;;;;;5057169;28;20488;-91
2022/07/02 10:10:32;;;;;;;0.63;0.38;;;37.90;40.40;;;;;;5071446;28;20800;-92
2022/07/02 10:12:57;;;;;;;0.00;0.00;;;37.00;40.90;;;;;;5053342;28;20033;-88
2022/07/02 10:15:24;;;;;;;;;;;37.80;40.50;;;;;;5052926;28;20025;-92
2022/07/02 10:17:54;;;;;;;0.00;0.00;;;38.00;40.00;;;;;;5059094;28;20306;-91
2022/07/02 10:20:22;;;;;;;0.00;0.00;;;37.50;39.80;;;;;;5058822;28;20057;-93
2022/07/02 10:22:49;;;;;;;0.22;0.00;;;37.20;41.70;;;;;;5061814;28;20040;-92
2022/07/02 10:25:17;;;;;;;0.00;0.00;;;36.30;41.40;;;;;;5063752;28;20041;-93
2022/07/02 10:27:44;;;;;;;0.10;0.10;;;35.40;43.20;;;;;;5056956;28;20036;-91
2022/07/02 10:30:11;;;;;;;0.05;0.00;;;35.90;39.90;;;;;;5067733;28;20033;-94
2022/07/02 10:32:56;;;;;;;0.00;0.00;;;36.30;42.20;;;;;;5065821;28;20120;-94
2022/07/02 10:35:23;;;;;;;0.10;0.00;;;36.40;40.40;;;;;;5068794;28;20318;-95
2022/07/02 10:37:59;;;;;;;0.00;0.00;;;35.70;42.70;;;;;;5065207;28;20043;-94
2022/07/02 10:40:24;;;;;;;;;;;36.70;41.90;;;;;;5063329;28;20113;-94
2022/07/02 10:42:51;;;;;;;0.10;0.10;;;36.70;41.10;;;;;;5061302;28;20024;-95
2022/07/02 10:45:21;;;;;;;0.00;0.00;;;34.60;43.90;;;;;;5071277;28;20034;-94
2022/07/02 10:48:02;;;;;;;1.33;0.95;;;32.70;44.00;;;;;;5060259;28;20347;-95
2022/07/02 10:50:34;;;;;;;0.00;0.00;;;32.10;48.10;;;;;;5078157;28;20020;-94
2022/07/02 10:53:12;;;;;;;0.03;0.03;;;31.20;45.50;;;;;;5084089;28;20032;-95
2022/07/02 10:55:41;;;;;;;0.00;0.00;;;31.30;44.90;;;;;;5061931;28;20777;-94
2022/07/02 10:58:08;;;;;;;0.00;0.00;;;30.10;45.00;;;;;;5066878;28;20512;-94
2022/07/02 11:00:38;;;;;;;0.10;0.10;;;29.80;48.20;;;;;;5069185;28;20039;-93
2022/07/02 11:03:14;;;;;;;0.00;0.00;;;29.90;48.20;;;;;;5064956;28;20098;-91
2022/07/02 11:05:59;;;;;;;0.00;0.00;;;29.70;49.40;;;;;;5063192;28;20112;-93
2022/07/02 11:08:46;;;;;;;0.00;0.00;;;29.40;45.30;;;;;;5063516;28;20551;-94
2022/07/02 11:11:19;;;;;;;0.03;0.03;;;29.30;47.80;;;;;;5066055;28;20442;-94
2022/07/02 11:13:54;;;;;;;0.03;0.03;;;29.40;49.40;;;;;;5060377;28;20021;-92
2022/07/02 11:16:28;;;;;;;0.00;0.00;;;29.00;47.20;;;;;;5083008;28;20043;-89
2022/07/02 11:18:55;;;;;;;0.28;0.28;;;28.30;44.70;;;;;;5058756;28;20140;-93
2022/07/02 11:21:23;;;;;;;0.00;0.00;;;28.20;45.80;;;;;;5058978;28;20078;-91
2022/07/02 11:23:49;;;;;;;0.10;0.00;;;28.40;45.30;;;;;;5050185;28;20449;-86
2022/07/02 11:26:23;;;;;;;0.00;0.00;;;28.20;46.10;;;;;;5047302;28;20091;-86
2022/07/02 11:28:50;;;;;;;0.00;0.00;;;28.20;49.80;;;;;;5048297;28;20036;-86
2022/07/02 11:31:16;;;;;;;;;;;28.30;49.60;;;;;;5051850;28;20024;-86
2022/07/02 11:33:51;;;;;;;0.00;0.00;;;28.40;47.30;;;;;;5050859;28;20439;-86
2022/07/02 11:36:17;;;;;;;0.00;0.00;;;28.10;48.30;;;;;;5047960;28;20697;-88
2022/07/02 11:38:45;;;;;;;0.00;0.00;;;28.10;49.90;;;;;;5046055;28;20412;-87
2022/07/02 11:41:22;;;;;;;0.00;0.00;;;28.00;47.40;;;;;;5050151;28;20041;-88
2022/07/02 11:43:53;;;;;;;0.00;0.00;;;27.80;51.30;;;;;;5051072;28;20032;-88
2022/07/02 11:46:27;;;;;;;0.00;0.00;;;27.80;52.20;;;;;;5048927;28;20040;-88
2022/07/02 11:48:56;;;;;;;0.00;0.00;;;27.60;54.90;;;;;;5052240;28;20720;-86
2022/07/02 11:51:22;;;;;;;0.00;0.00;;;27.70;53.00;;;;;;5057857;28;20610;-89
2022/07/02 11:54:00;;;;;;;0.10;0.10;;;27.60;52.50;;;;;;5052829;28;20016;-90
2022/07/02 11:56:26;;;;;;;0.00;0.00;;;27.50;50.10;;;;;;5055506;28;20041;-89
2022/07/02 11:58:52;;;;;;;0.10;0.10;;;27.50;53.30;;;;;;5057900;28;20496;-80
2022/07/02 12:01:29;;;;;;;0.00;0.00;;;27.50;51.10;;;;;;5062843;28;20037;-80
2022/07/02 12:04:02;;;;;;;0.00;0.00;;;27.50;55.40;;;;;;5051698;28;20039;-80
2022/07/02 12:06:33;;;;;;;0.00;0.00;;;27.30;50.60;;;;;;5060394;28;20052;-81
2022/07/02 12:09:00;;;;;;;0.00;0.00;;;27.20;49.10;;;;;;5059685;28;20512;-81
2022/07/02 12:11:27;;;;;;;0.00;0.00;;;27.30;56.60;;;;;;5063697;28;20024;-81
2022/07/02 12:13:56;;;;;;;1.58;0.47;;;27.10;51.90;;;;;;5070644;28;20462;-81
2022/07/02 12:16:24;;;;;;;0.00;0.00;;;27.20;54.30;;;;;;5056985;28;20036;-81
2022/07/02 12:19:07;;;;;;;0.32;0.25;;;27.20;54.20;;;;;;5061577;28;20048;-81
2022/07/02 12:21:40;;;;;;;0.00;0.00;;;27.10;52.10;;;;;;5054243;28;20032;-80
2022/07/02 12:24:07;;;;;;;0.15;0.00;;;27.00;55.60;;;;;;5058090;28;20040;-81
2022/07/02 12:26:33;;;;;;;0.10;0.10;;;26.90;52.60;;;;;;5052252;28;20810;-81
2022/07/02 12:31:49;;;;;;;0.70;0.28;;;26.70;51.50;;;;;;5060480;28;20106;-80
2022/07/02 12:34:16;;;;;;;0.00;0.00;;;26.60;52.60;;;;;;5056921;28;20085;-81
2022/07/02 12:36:52;;;;;;;0.00;0.00;;;26.90;55.20;;;;;;5054092;28;20051;-80
2022/07/02 12:39:18;;;;;;;;;;;27.00;58.50;;;;;;5057060;28;20044;-80
2022/07/02 12:41:44;;;;;;;;;;;26.90;56.20;;;;;;5060948;28;19912;-81
2022/07/02 12:44:20;;;;;;;0.10;0.10;;;26.90;55.70;;;;;;5060882;28;19975;-80
2022/07/02 12:46:48;;;;;;;0.00;0.00;;;26.90;53.40;;;;;;5059949;28;20071;-81
2022/07/02 12:49:16;;;;;;;0.00;0.00;;;26.80;54.30;;;;;;5059499;28;20029;-81
2022/07/02 12:51:51;;;;;;;0.00;0.00;;;26.90;54.00;;;;;;5061091;28;20033;-80
2022/07/02 12:54:17;;;;;;;0.00;0.00;;;26.80;53.50;;;;;;5051590;28;20035;-80
2022/07/02 12:56:43;;;;;;;0.00;0.00;;;26.70;53.70;;;;;;5056252;28;20032;-80
2022/07/02 12:59:09;;;;;;;0.00;0.00;;;26.70;51.20;;;;;;5074906;28;20498;-80
2022/07/02 13:01:35;;;;;;;0.00;0.00;;;26.60;52.30;;;;;;5058148;28;20124;-80
2022/07/02 13:04:01;;;;;;;0.10;0.10;;;26.60;52.40;;;;;;5059336;28;20036;-80